Time;durP1;ratioP1;P1;durP2;ratioP2;P2;SDS_P1;SDS_P2;PMS_P1;PMS_P2;Temp;Humidity;BMP_temperature;BMP_pressure;BME280_temperature;BME280_humidity;BME280_pressure;Samples;Min_cycle;Max_cycle;Signal;HPM_P1;HPM_P2
2023/08/29 00:00:29;;;;;;;10.23;7.95;;;17.70;99.90;;;;;;5042631;28;20109;-72
2023/08/29 00:02:55;;;;;;;9.57;8.68;;;17.70;99.90;;;;;;5042644;28;20115;-72
2023/08/29 00:05:21;;;;;;;9.18;8.30;;;17.60;99.90;;;;;;5048191;28;20025;-71
2023/08/29 00:07:46;;;;;;;11.00;8.07;;;17.60;99.90;;;;;;5041682;28;20075;-72
2023/08/29 00:10:12;;;;;;;10.02;8.15;;;17.60;99.90;;;;;;5043707;28;20039;-71
2023/08/29 00:12:41;;;;;;;10.95;7.50;;;17.60;99.90;;;;;;5043017;28;20025;-72
2023/08/29 00:15:08;;;;;;;8.98;8.07;;;17.60;99.90;;;;;;5044584;28;20048;-72
2023/08/29 00:17:34;;;;;;;9.93;8.45;;;17.50;99.90;;;;;;5045427;28;20028;-72
2023/08/29 00:20:01;;;;;;;9.85;8.70;;;17.50;99.90;;;;;;5042546;28;20068;-71
2023/08/29 00:22:27;;;;;;;11.05;8.18;;;17.50;99.90;;;;;;5046783;28;20044;-72
2023/08/29 00:24:53;;;;;;;9.57;8.68;;;17.40;99.90;;;;;;5041864;28;20061;-71
2023/08/29 00:27:19;;;;;;;10.82;8.32;;;17.40;99.90;;;;;;5038168;28;20425;-71
2023/08/29 00:29:45;;;;;;;10.20;8.38;;;17.40;99.90;;;;;;5045680;28;20029;-72
2023/08/29 00:32:11;;;;;;;11.60;8.48;;;17.40;99.90;;;;;;5037480;28;20017;-72
2023/08/29 00:34:37;;;;;;;10.27;8.45;;;17.30;99.90;;;;;;5042009;28;20371;-72
2023/08/29 00:37:04;;;;;;;12.40;9.45;;;17.30;99.90;;;;;;5046718;28;20022;-71
2023/08/29 00:39:29;;;;;;;12.75;9.00;;;17.30;99.90;;;;;;5040096;28;20024;-71
2023/08/29 00:41:55;;;;;;;11.30;8.98;;;17.30;99.90;;;;;;5043693;28;20037;-71
2023/08/29 00:44:21;;;;;;;16.10;9.90;;;17.20;99.90;;;;;;5043116;28;20056;-71
2023/08/29 00:46:47;;;;;;;12.70;8.77;;;17.20;99.90;;;;;;5041177;28;20025;-72
2023/08/29 00:49:27;;;;;;;10.75;8.85;;;17.20;99.90;;;;;;5043674;28;20541;-72
2023/08/29 00:51:53;;;;;;;14.93;9.00;;;17.20;99.90;;;;;;5040182;28;20650;-71
2023/08/29 00:54:21;;;;;;;10.85;9.70;;;17.10;99.90;;;;;;5040007;28;20048;-71
2023/08/29 00:56:48;;;;;;;14.43;9.10;;;17.10;99.90;;;;;;5042068;28;20445;-72
2023/08/29 00:59:14;;;;;;;14.50;9.10;;;17.10;99.90;;;;;;5043164;28;20034;-71
2023/08/29 01:01:40;;;;;;;11.18;8.98;;;17.00;99.90;;;;;;5042679;28;20037;-71
2023/08/29 01:04:09;;;;;;;12.95;9.65;;;17.00;99.90;;;;;;5047324;28;20017;-72
2023/08/29 01:06:36;;;;;;;10.07;8.93;;;17.00;99.90;;;;;;5042850;28;20028;-72
2023/08/29 01:09:03;;;;;;;13.20;9.15;;;17.00;99.90;;;;;;5042264;28;20021;-72
2023/08/29 01:11:48;;;;;;;11.10;9.88;;;17.00;99.90;;;;;;5050331;28;20099;-71
2023/08/29 01:14:20;;;;;;;10.95;9.85;;;16.90;99.90;;;;;;5040482;28;20033;-71
2023/08/29 01:17:03;;;;;;;11.95;9.05;;;16.90;99.90;;;;;;5045964;28;20245;-71
2023/08/29 01:19:30;;;;;;;11.70;9.35;;;16.90;99.90;;;;;;5040096;28;20029;-73
2023/08/29 01:22:28;;;;;;;13.13;8.93;;;16.80;99.90;;;;;;5041784;28;20033;-71
2023/08/29 01:25:00;;;;;;;12.95;9.27;;;16.90;99.90;;;;;;5048270;28;20040;-71
2023/08/29 01:27:27;;;;;;;9.77;8.88;;;16.80;99.90;;;;;;5047229;28;20114;-71
2023/08/29 01:29:53;;;;;;;13.48;9.88;;;16.80;99.90;;;;;;5046737;28;20057;-71
2023/08/29 01:32:20;;;;;;;9.85;8.95;;;16.80;99.90;;;;;;5050600;28;20041;-71
2023/08/29 01:34:46;;;;;;;10.13;9.18;;;16.70;99.90;;;;;;5038097;28;20233;-72
2023/08/29 01:37:12;;;;;;;11.45;10.23;;;16.70;99.90;;;;;;5042574;28;20025;-71
2023/08/29 01:39:38;;;;;;;10.02;9.07;;;16.70;99.90;;;;;;5039674;28;20075;-71
2023/08/29 01:42:04;;;;;;;11.30;9.68;;;16.70;99.90;;;;;;5043683;28;20107;-71
2023/08/29 01:44:29;;;;;;;11.63;9.50;;;16.60;99.90;;;;;;5044160;28;20390;-72
2023/08/29 01:46:55;;;;;;;12.88;9.85;;;16.60;99.90;;;;;;5048636;28;20489;-71
2023/08/29 01:49:21;;;;;;;11.13;10.02;;;16.60;99.90;;;;;;5042397;28;20026;-72
2023/08/29 01:51:47;;;;;;;12.10;9.30;;;16.60;99.90;;;;;;5046056;28;20032;-72
2023/08/29 01:54:13;;;;;;;10.27;8.88;;;16.50;99.90;;;;;;5044785;28;20025;-72
2023/08/29 01:56:42;;;;;;;13.02;10.70;;;16.50;99.90;;;;;;5042626;28;20036;-71
2023/08/29 01:59:08;;;;;;;11.80;10.65;;;16.50;99.90;;;;;;5041253;28;20017;-72
2023/08/29 02:01:34;;;;;;;12.18;10.63;;;16.40;99.90;;;;;;5043660;28;20041;-71
2023/08/29 02:03:59;;;;;;;11.93;10.40;;;16.40;99.90;;;;;;5044428;28;20032;-72
2023/08/29 02:06:25;;;;;;;10.85;9.73;;;16.40;99.90;;;;;;5046804;28;20036;-71
2023/08/29 02:08:51;;;;;;;11.65;10.35;;;16.40;99.90;;;;;;5043380;28;20394;-71
2023/08/29 02:11:17;;;;;;;15.38;9.63;;;16.30;99.90;;;;;;5047513;28;20028;-71
2023/08/29 02:13:42;;;;;;;11.85;9.77;;;16.30;99.90;;;;;;5046712;28;20064;-71
2023/08/29 02:16:08;;;;;;;10.68;9.68;;;16.30;99.90;;;;;;5049005;28;20492;-71
2023/08/29 02:18:34;;;;;;;11.98;9.95;;;16.30;99.90;;;;;;5044528;28;20028;-71
2023/08/29 02:21:00;;;;;;;12.45;10.77;;;16.20;99.90;;;;;;5047690;28;20033;-71
2023/08/29 02:23:25;;;;;;;13.75;10.40;;;16.20;99.90;;;;;;5041457;28;20033;-71
2023/08/29 02:26:04;;;;;;;16.60;10.40;;;16.20;99.90;;;;;;5045209;28;20470;-71
2023/08/29 02:28:37;;;;;;;11.95;10.75;;;16.20;99.90;;;;;;5043094;28;20029;-71
2023/08/29 02:31:05;;;;;;;11.40;10.15;;;16.10;99.90;;;;;;5045125;28;20026;-71
2023/08/29 02:33:33;;;;;;;12.73;9.68;;;16.10;99.90;;;;;;5049805;28;20025;-71
2023/08/29 02:35:59;;;;;;;12.63;9.70;;;16.10;99.90;;;;;;5044589;28;20021;-71
2023/08/29 02:38:25;;;;;;;12.95;9.95;;;16.10;99.90;;;;;;5041226;28;20021;-70
2023/08/29 02:40:50;;;;;;;10.50;9.30;;;16.10;99.90;;;;;;5044918;28;20553;-71
2023/08/29 02:43:16;;;;;;;11.75;10.52;;;16.10;99.90;;;;;;5044213;28;20033;-71
2023/08/29 02:45:42;;;;;;;11.52;10.05;;;16.10;99.90;;;;;;5044227;28;20108;-71
2023/08/29 02:48:07;;;;;;;11.05;9.85;;;16.10;99.90;;;;;;5048709;28;20382;-71
2023/08/29 02:50:33;;;;;;;12.90;10.60;;;16.10;99.90;;;;;;5041770;28;20048;-71
2023/08/29 02:52:59;;;;;;;15.07;10.35;;;16.10;99.90;;;;;;5043804;28;20096;-71
2023/08/29 02:55:25;;;;;;;11.35;10.20;;;16.10;99.90;;;;;;5043122;28;20029;-71
2023/08/29 02:57:51;;;;;;;12.07;10.75;;;16.00;99.90;;;;;;5047228;28;20105;-70
2023/08/29 03:00:17;;;;;;;13.60;12.13;;;16.00;99.90;;;;;;5050710;28;20090;-70
2023/08/29 03:02:43;;;;;;;12.45;10.85;;;16.00;99.90;;;;;;5044661;28;20529;-71
2023/08/29 03:05:09;;;;;;;14.30;11.27;;;16.00;99.90;;;;;;5037525;28;20104;-71
2023/08/29 03:07:34;;;;;;;13.02;11.13;;;16.00;99.90;;;;;;5043578;28;20469;-70
2023/08/29 03:10:00;;;;;;;16.17;11.60;;;15.90;99.90;;;;;;5045258;28;20127;-71
2023/08/29 03:12:26;;;;;;;15.52;10.68;;;15.90;99.90;;;;;;5051658;28;20405;-71
2023/08/29 03:14:55;;;;;;;12.63;10.75;;;15.80;99.90;;;;;;5048544;28;20027;-70
2023/08/29 03:17:21;;;;;;;14.80;10.70;;;15.80;99.90;;;;;;5046881;28;20108;-71
2023/08/29 03:19:50;;;;;;;15.30;10.77;;;15.80;99.90;;;;;;5040036;28;20473;-71
2023/08/29 03:22:15;;;;;;;13.23;9.98;;;15.90;99.90;;;;;;5046758;28;20040;-70
2023/08/29 03:24:46;;;;;;;12.52;9.68;;;15.90;99.90;;;;;;5049997;28;20043;-70
2023/08/29 03:27:12;;;;;;;11.95;9.45;;;15.90;99.90;;;;;;5044685;28;20066;-70
2023/08/29 03:29:37;;;;;;;14.27;10.07;;;16.00;99.90;;;;;;5040178;28;20104;-70
2023/08/29 03:32:03;;;;;;;12.57;9.70;;;16.00;99.90;;;;;;5044647;28;20443;-70
2023/08/29 03:34:29;;;;;;;13.95;10.18;;;15.90;99.90;;;;;;5045863;28;20521;-71
2023/08/29 03:36:54;;;;;;;12.73;9.98;;;15.90;99.90;;;;;;5041281;28;20041;-71
2023/08/29 03:39:20;;;;;;;10.98;9.10;;;15.90;99.90;;;;;;5044817;28;20387;-71
2023/08/29 03:41:46;;;;;;;9.73;8.73;;;15.80;99.90;;;;;;5050803;28;20052;-71
2023/08/29 03:44:12;;;;;;;12.48;9.27;;;15.70;99.90;;;;;;5042720;28;20363;-70
2023/08/29 03:46:38;;;;;;;9.43;8.45;;;15.70;99.90;;;;;;5042679;28;20037;-71
2023/08/29 03:49:03;;;;;;;9.77;8.60;;;15.60;99.90;;;;;;5039622;28;20028;-71
2023/08/29 03:51:30;;;;;;;10.75;8.63;;;15.70;99.90;;;;;;5043429;28;20050;-71
2023/08/29 03:53:56;;;;;;;13.45;11.18;;;15.60;99.90;;;;;;5040924;28;20355;-71
2023/08/29 03:56:22;;;;;;;11.00;9.90;;;15.60;99.90;;;;;;5046071;28;20083;-71
2023/08/29 03:58:49;;;;;;;13.07;9.18;;;15.60;99.90;;;;;;5045539;28;20021;-71
2023/08/29 04:01:15;;;;;;;14.30;9.75;;;15.60;99.90;;;;;;5037954;28;20501;-71
2023/08/29 04:03:41;;;;;;;10.55;9.27;;;15.70;99.90;;;;;;5044202;28;20021;-71
2023/08/29 04:06:07;;;;;;;12.43;9.45;;;15.60;99.90;;;;;;5035042;28;20027;-71
2023/08/29 04:08:33;;;;;;;11.48;9.55;;;15.70;99.90;;;;;;5042672;28;20021;-71
2023/08/29 04:10:58;;;;;;;10.63;9.27;;;15.60;99.90;;;;;;5039429;28;20049;-72
2023/08/29 04:13:24;;;;;;;10.18;9.07;;;15.60;99.90;;;;;;5042974;28;20025;-71
2023/08/29 04:15:50;;;;;;;10.60;8.68;;;15.60;99.90;;;;;;5048921;28;20072;-71
2023/08/29 04:18:16;;;;;;;11.57;9.05;;;15.60;99.90;;;;;;5042420;28;20026;-71
2023/08/29 04:20:43;;;;;;;10.73;8.93;;;15.60;99.90;;;;;;5042737;28;20032;-71
2023/08/29 04:23:10;;;;;;;11.50;9.75;;;15.50;99.90;;;;;;5043186;28;20411;-71
2023/08/29 04:25:36;;;;;;;10.63;9.52;;;15.50;99.90;;;;;;5045343;28;20076;-71
2023/08/29 04:28:03;;;;;;;12.88;9.20;;;15.50;99.90;;;;;;5038882;28;20032;-71
2023/08/29 04:30:29;;;;;;;11.38;9.30;;;15.40;99.90;;;;;;5050840;28;20033;-71
2023/08/29 04:32:56;;;;;;;12.95;10.63;;;15.40;99.90;;;;;;5039996;28;20366;-71
2023/08/29 04:35:22;;;;;;;12.50;11.20;;;15.40;99.90;;;;;;5042242;28;20028;-71
2023/08/29 04:37:49;;;;;;;13.80;10.43;;;15.40;99.90;;;;;;5041573;28;20040;-71
2023/08/29 04:40:21;;;;;;;12.55;10.60;;;15.40;99.90;;;;;;5038276;28;20087;-71
2023/08/29 04:42:47;;;;;;;14.18;11.00;;;15.40;99.90;;;;;;5044464;28;20463;-71
2023/08/29 04:45:13;;;;;;;11.32;10.13;;;15.40;99.90;;;;;;5044292;28;20017;-72
2023/08/29 04:47:39;;;;;;;14.15;10.80;;;15.40;99.90;;;;;;5041131;28;20009;-72
2023/08/29 04:50:05;;;;;;;13.60;11.60;;;15.40;99.90;;;;;;5039845;28;20563;-71
2023/08/29 04:52:31;;;;;;;14.02;11.18;;;15.40;99.90;;;;;;5042126;28;20024;-72
2023/08/29 04:54:57;;;;;;;14.20;11.27;;;15.30;99.90;;;;;;5042939;28;20029;-71
2023/08/29 04:57:23;;;;;;;13.52;12.07;;;15.30;99.90;;;;;;5045656;28;20098;-72
2023/08/29 04:59:49;;;;;;;13.98;11.20;;;15.30;99.90;;;;;;5036081;28;20400;-72
2023/08/29 05:02:16;;;;;;;14.05;11.25;;;15.40;99.90;;;;;;5036471;28;20362;-72
2023/08/29 05:04:45;;;;;;;18.20;12.07;;;15.40;99.90;;;;;;5042178;28;20382;-71
2023/08/29 05:07:11;;;;;;;13.13;10.50;;;15.40;99.90;;;;;;5048657;28;20021;-72
2023/08/29 05:09:37;;;;;;;11.90;10.55;;;15.40;99.90;;;;;;5044608;28;20383;-72
2023/08/29 05:12:03;;;;;;;15.05;11.48;;;15.40;99.90;;;;;;5040236;28;20022;-72
2023/08/29 05:14:29;;;;;;;15.88;13.30;;;15.40;99.90;;;;;;5043140;28;20018;-72
2023/08/29 05:16:54;;;;;;;14.55;12.38;;;15.50;99.90;;;;;;5047821;28;20025;-72
2023/08/29 05:19:20;;;;;;;14.57;11.90;;;15.40;99.90;;;;;;5046383;28;20068;-71
2023/08/29 05:21:46;;;;;;;16.60;12.68;;;15.50;99.90;;;;;;5044874;28;20045;-71
2023/08/29 05:24:12;;;;;;;16.98;12.20;;;15.40;99.90;;;;;;5043817;28;20087;-71
2023/08/29 05:26:37;;;;;;;19.15;13.70;;;15.50;99.90;;;;;;5040409;28;20029;-72
2023/08/29 05:29:03;;;;;;;16.13;13.48;;;15.50;99.90;;;;;;5045169;28;20489;-71
2023/08/29 05:31:29;;;;;;;15.90;12.93;;;15.50;99.90;;;;;;5051670;28;20027;-71
2023/08/29 05:33:55;;;;;;;13.25;11.10;;;15.50;99.90;;;;;;5045593;28;20057;-72
2023/08/29 05:36:21;;;;;;;17.55;13.23;;;15.50;99.90;;;;;;5048400;28;20091;-72
2023/08/29 05:38:47;;;;;;;20.00;14.60;;;15.50;99.90;;;;;;5041626;28;20033;-71
2023/08/29 05:41:13;;;;;;;18.23;12.68;;;15.50;99.90;;;;;;5043123;28;20049;-71
2023/08/29 05:43:39;;;;;;;15.80;12.75;;;15.50;99.90;;;;;;5040428;28;20465;-71
2023/08/29 05:46:05;;;;;;;18.90;13.73;;;15.40;99.90;;;;;;5045328;28;20066;-71
2023/08/29 05:48:30;;;;;;;18.08;12.88;;;15.30;99.90;;;;;;5045000;28;20048;-71
2023/08/29 05:50:56;;;;;;;17.15;13.65;;;15.30;99.90;;;;;;5045554;28;20037;-71
2023/08/29 05:53:22;;;;;;;17.77;13.15;;;15.30;99.90;;;;;;5039498;28;20071;-71
2023/08/29 05:55:47;;;;;;;15.93;12.65;;;15.40;99.90;;;;;;5046421;28;20024;-73
2023/08/29 05:58:13;;;;;;;16.27;13.10;;;15.40;99.90;;;;;;5046543;28;20026;-71
2023/08/29 06:00:39;;;;;;;19.08;14.02;;;15.50;99.90;;;;;;5053961;28;20076;-72
2023/08/29 06:03:06;;;;;;;18.65;13.35;;;15.50;99.90;;;;;;5044284;28;20709;-71
2023/08/29 06:05:33;;;;;;;18.98;14.13;;;15.50;99.90;;;;;;5043376;28;20029;-72
2023/08/29 06:08:02;;;;;;;16.98;13.57;;;15.50;99.90;;;;;;5046955;28;20071;-73
2023/08/29 06:10:28;;;;;;;22.52;14.77;;;15.50;99.90;;;;;;5042096;28;20057;-72
2023/08/29 06:12:54;;;;;;;19.65;13.88;;;15.50;99.90;;;;;;5050864;28;20049;-72
2023/08/29 06:15:22;;;;;;;20.73;15.40;;;15.60;99.90;;;;;;5047758;28;20064;-72
2023/08/29 06:17:48;;;;;;;21.80;16.17;;;15.60;99.90;;;;;;5040271;28;20041;-71
2023/08/29 06:20:14;;;;;;;22.50;16.25;;;15.60;99.90;;;;;;5042934;28;20032;-72
2023/08/29 06:22:40;;;;;;;19.15;14.75;;;15.70;99.90;;;;;;5043195;28;20017;-72
2023/08/29 06:25:06;;;;;;;22.20;15.57;;;15.70;99.90;;;;;;5046456;28;20028;-71
2023/08/29 06:27:33;;;;;;;21.60;15.93;;;15.80;99.90;;;;;;5041700;28;20429;-71
2023/08/29 06:29:59;;;;;;;22.45;12.48;;;15.80;99.90;;;;;;5045669;28;20343;-71
2023/08/29 06:32:25;;;;;;;17.30;12.45;;;15.80;99.90;;;;;;5043678;28;20040;-72
2023/08/29 06:34:50;;;;;;;22.67;13.30;;;15.90;99.90;;;;;;5045059;28;20039;-71
2023/08/29 06:37:16;;;;;;;19.20;12.85;;;15.90;99.90;;;;;;5044073;28;20029;-71
2023/08/29 06:39:44;;;;;;;17.23;13.63;;;16.00;99.90;;;;;;5042033;28;20025;-72
2023/08/29 06:42:10;;;;;;;22.10;17.55;;;16.00;99.90;;;;;;5047535;28;20048;-72
2023/08/29 06:44:36;;;;;;;25.52;17.17;;;16.00;99.90;;;;;;5043144;28;20020;-71
2023/08/29 06:47:02;;;;;;;24.63;17.92;;;16.10;99.90;;;;;;5045148;28;20025;-71
2023/08/29 06:49:27;;;;;;;23.70;17.30;;;16.20;99.90;;;;;;5043241;28;20035;-72
2023/08/29 06:51:53;;;;;;;23.67;15.45;;;16.20;99.90;;;;;;5045466;28;20032;-72
2023/08/29 06:54:19;;;;;;;20.50;16.35;;;16.30;99.90;;;;;;5041296;28;20470;-71
2023/08/29 06:56:45;;;;;;;21.38;17.65;;;16.30;99.90;;;;;;5047217;28;20028;-71
2023/08/29 06:59:11;;;;;;;25.30;18.92;;;16.30;99.90;;;;;;5046223;28;20018;-71
2023/08/29 07:01:37;;;;;;;24.33;18.70;;;16.40;99.90;;;;;;5046960;28;20076;-72
2023/08/29 07:04:03;;;;;;;24.05;18.17;;;16.40;99.90;;;;;;5044441;28;20049;-72
2023/08/29 07:06:29;;;;;;;23.55;17.77;;;16.40;99.90;;;;;;5046723;28;20033;-72
2023/08/29 07:08:54;;;;;;;25.13;19.88;;;16.50;99.90;;;;;;5042079;28;20024;-72
2023/08/29 07:11:20;;;;;;;26.20;18.48;;;16.50;99.90;;;;;;5042804;28;20041;-70
2023/08/29 07:13:46;;;;;;;27.50;20.08;;;16.50;99.90;;;;;;5041897;28;20857;-71
2023/08/29 07:16:12;;;;;;;21.85;17.65;;;16.50;99.90;;;;;;5044831;28;20064;-70
2023/08/29 07:18:37;;;;;;;22.48;18.70;;;16.60;99.90;;;;;;5037727;28;20100;-70
2023/08/29 07:21:03;;;;;;;24.90;17.65;;;16.60;99.90;;;;;;5043598;28;20052;-71
2023/08/29 07:23:29;;;;;;;22.17;18.00;;;16.60;99.90;;;;;;5049555;28;20069;-71
2023/08/29 07:25:55;;;;;;;22.83;17.60;;;16.70;99.90;;;;;;5044923;28;20574;-70
2023/08/29 07:28:21;;;;;;;20.50;17.25;;;16.70;99.90;;;;;;5039005;28;20071;-70
2023/08/29 07:30:48;;;;;;;22.98;17.27;;;16.70;99.90;;;;;;5047898;28;20059;-71
2023/08/29 07:33:15;;;;;;;24.92;17.15;;;16.80;99.90;;;;;;5043505;28;20510;-71
2023/08/29 07:35:41;;;;;;;21.05;16.45;;;16.80;99.90;;;;;;5038813;28;20017;-71
2023/08/29 07:38:07;;;;;;;24.90;19.20;;;16.80;99.90;;;;;;5042959;28;20072;-71
2023/08/29 07:40:34;;;;;;;23.52;18.17;;;16.80;99.90;;;;;;5038084;28;20112;-71
2023/08/29 07:43:09;;;;;;;22.85;17.20;;;16.90;99.90;;;;;;5051077;28;20100;-72
2023/08/29 07:45:35;;;;;;;25.65;16.80;;;17.00;99.90;;;;;;5044647;28;20053;-72
2023/08/29 07:48:02;;;;;;;24.05;17.60;;;17.00;99.90;;;;;;5041606;28;20028;-72
2023/08/29 07:50:28;;;;;;;22.95;18.13;;;17.20;99.90;;;;;;5038752;28;20025;-72
2023/08/29 07:52:54;;;;;;;25.42;16.77;;;17.20;99.90;;;;;;5048657;28;20025;-72
2023/08/29 07:55:20;;;;;;;20.30;15.88;;;17.20;99.90;;;;;;5043477;28;20033;-71
2023/08/29 07:57:47;;;;;;;18.88;14.52;;;17.30;99.90;;;;;;5042855;28;20497;-71
2023/08/29 08:00:13;;;;;;;22.77;15.73;;;17.40;99.90;;;;;;5046037;28;20129;-71
2023/08/29 08:02:39;;;;;;;18.70;15.40;;;17.40;99.90;;;;;;5046778;28;20036;-71
2023/08/29 08:05:12;;;;;;;16.30;14.25;;;17.40;99.90;;;;;;5046374;28;20087;-71
2023/08/29 08:07:43;;;;;;;19.30;14.25;;;17.40;99.90;;;;;;5047525;28;20029;-72
2023/08/29 08:10:11;;;;;;;18.45;14.43;;;17.50;99.90;;;;;;5043287;28;20028;-72
2023/08/29 08:12:38;;;;;;;17.52;14.57;;;17.60;99.90;;;;;;5048091;28;20029;-71
2023/08/29 08:15:06;;;;;;;17.38;14.15;;;17.60;99.90;;;;;;5045967;28;20492;-72
2023/08/29 08:17:32;;;;;;;16.13;14.32;;;17.70;99.90;;;;;;5048546;28;20026;-71
2023/08/29 08:19:58;;;;;;;16.55;13.10;;;17.80;99.90;;;;;;5042933;28;20025;-71
2023/08/29 08:22:24;;;;;;;15.93;11.95;;;17.90;99.90;;;;;;5040105;28;20645;-71
2023/08/29 08:24:50;;;;;;;13.10;11.48;;;18.10;99.90;;;;;;5040352;28;20522;-72
2023/08/29 08:27:16;;;;;;;16.83;12.55;;;18.20;99.90;;;;;;5041897;28;20132;-72
2023/08/29 08:29:42;;;;;;;15.00;11.70;;;18.20;99.90;;;;;;5039475;28;20120;-72
2023/08/29 08:32:08;;;;;;;16.85;11.85;;;18.30;99.90;;;;;;5040219;28;20144;-70
2023/08/29 08:34:34;;;;;;;13.95;10.80;;;18.30;99.90;;;;;;5041808;28;20033;-72
2023/08/29 08:37:00;;;;;;;13.88;10.50;;;18.40;99.90;;;;;;5040427;28;20021;-71
2023/08/29 08:39:25;;;;;;;13.90;10.73;;;18.40;99.90;;;;;;5046623;28;20037;-71
2023/08/29 08:41:52;;;;;;;11.48;10.00;;;18.50;99.90;;;;;;5040447;28;20043;-71
2023/08/29 08:44:21;;;;;;;12.60;10.60;;;18.50;99.90;;;;;;5046526;28;20028;-71
2023/08/29 08:46:47;;;;;;;12.70;10.60;;;18.50;99.90;;;;;;5040290;28;20108;-71
2023/08/29 08:49:13;;;;;;;11.55;9.43;;;18.50;99.90;;;;;;5043698;28;20032;-70
2023/08/29 08:51:40;;;;;;;13.60;10.30;;;18.50;99.90;;;;;;5041607;28;20175;-70
2023/08/29 08:54:07;;;;;;;8.98;8.02;;;18.50;99.90;;;;;;5043088;28;20233;-71
2023/08/29 08:56:33;;;;;;;9.75;8.75;;;18.60;99.90;;;;;;5045956;28;20031;-70
2023/08/29 08:58:59;;;;;;;10.55;9.02;;;18.60;99.90;;;;;;5073063;28;20032;-70
2023/08/29 09:01:26;;;;;;;11.63;9.20;;;18.60;99.90;;;;;;5044903;28;20033;-71
2023/08/29 09:03:54;;;;;;;11.80;9.40;;;18.70;99.90;;;;;;5047988;28;20045;-71
2023/08/29 09:06:19;;;;;;;12.57;9.85;;;18.80;99.90;;;;;;5044539;28;20013;-70
2023/08/29 09:08:45;;;;;;;10.43;8.98;;;18.80;99.90;;;;;;5039178;28;20029;-72
2023/08/29 09:11:11;;;;;;;18.40;10.00;;;18.90;99.90;;;;;;5045126;28;20024;-72
2023/08/29 09:13:49;;;;;;;12.02;9.07;;;18.90;99.90;;;;;;5040402;28;20034;-71
2023/08/29 09:16:18;;;;;;;10.30;8.45;;;18.90;99.90;;;;;;5038084;28;20037;-71
2023/08/29 09:18:44;;;;;;;11.95;9.07;;;19.00;99.90;;;;;;5041171;28;20025;-71
2023/08/29 09:21:17;;;;;;;10.18;8.75;;;19.00;99.90;;;;;;5041242;28;20439;-69
2023/08/29 09:23:43;;;;;;;12.20;8.20;;;19.10;99.90;;;;;;5043175;28;20033;-70
2023/08/29 09:26:11;;;;;;;8.98;8.00;;;19.20;99.90;;;;;;5033935;28;20029;-71
2023/08/29 09:28:38;;;;;;;10.40;7.50;;;19.10;99.90;;;;;;5041952;28;20088;-72
2023/08/29 09:31:08;;;;;;;9.52;7.07;;;19.20;99.90;;;;;;5041900;28;20021;-70
2023/08/29 09:33:35;;;;;;;8.25;6.45;;;19.20;99.90;;;;;;5041497;28;22167;-71
2023/08/29 09:36:05;;;;;;;12.10;6.75;;;19.30;99.90;;;;;;5041763;28;20516;-70
2023/08/29 09:38:34;;;;;;;8.73;5.55;;;19.40;99.90;;;;;;5041217;28;20029;-71
2023/08/29 09:41:01;;;;;;;7.53;5.25;;;19.40;99.90;;;;;;5042525;28;20299;-72
2023/08/29 09:43:28;;;;;;;5.97;4.93;;;19.50;99.90;;;;;;5048438;28;20030;-71
2023/08/29 09:45:57;;;;;;;6.75;4.22;;;19.60;99.90;;;;;;5042728;28;20032;-71
2023/08/29 09:48:22;;;;;;;6.50;4.85;;;19.60;99.90;;;;;;5038836;28;20048;-71
2023/08/29 09:50:50;;;;;;;7.82;4.78;;;19.70;99.90;;;;;;5043372;28;20099;-71
2023/08/29 09:53:18;;;;;;;5.57;3.88;;;19.90;99.90;;;;;;5039589;28;20057;-71
2023/08/29 09:55:53;;;;;;;7.85;5.53;;;19.80;99.90;;;;;;5042885;28;20458;-72
2023/08/29 09:58:21;;;;;;;8.13;6.13;;;19.80;99.90;;;;;;5041132;28;20108;-71
2023/08/29 10:00:49;;;;;;;7.43;6.72;;;19.90;99.90;;;;;;5046694;28;20060;-72
2023/08/29 10:03:17;;;;;;;9.57;6.40;;;19.90;99.90;;;;;;5040835;28;20505;-71
2023/08/29 10:05:44;;;;;;;5.45;3.67;;;20.00;99.90;;;;;;5046372;28;20052;-72
2023/08/29 10:08:25;;;;;;;4.13;2.58;;;20.00;99.90;;;;;;5043708;28;20537;-71
2023/08/29 10:10:55;;;;;;;4.45;3.60;;;20.10;99.90;;;;;;5044025;28;20021;-71
2023/08/29 10:13:22;;;;;;;4.18;2.80;;;20.10;99.90;;;;;;5044372;28;20079;-71
2023/08/29 10:15:49;;;;;;;5.32;3.22;;;20.10;99.90;;;;;;5046349;28;20047;-72
2023/08/29 10:18:15;;;;;;;5.07;2.42;;;20.10;99.90;;;;;;5041172;28;20363;-72
2023/08/29 10:20:45;;;;;;;2.38;1.80;;;20.20;99.90;;;;;;5045429;28;20142;-71
2023/08/29 10:23:15;;;;;;;3.28;1.60;;;20.30;99.90;;;;;;5055562;28;20381;-72
2023/08/29 10:25:42;;;;;;;1.52;1.38;;;20.30;99.90;;;;;;5049982;28;20481;-73
2023/08/29 10:28:12;;;;;;;3.28;1.67;;;20.30;99.90;;;;;;5049085;28;20025;-71
2023/08/29 10:30:44;;;;;;;1.40;1.30;;;20.20;99.90;;;;;;5046632;28;20013;-72
2023/08/29 10:33:11;;;;;;;3.70;2.20;;;20.30;99.90;;;;;;5044874;28;20030;-72
2023/08/29 10:35:37;;;;;;;3.83;2.50;;;20.30;99.90;;;;;;5048106;28;20028;-72
2023/08/29 10:38:15;;;;;;;9.40;4.07;;;20.30;99.90;;;;;;5043821;28;20392;-72
2023/08/29 10:40:43;;;;;;;4.95;3.10;;;20.10;99.90;;;;;;5045580;28;20036;-73
2023/08/29 10:43:22;;;;;;;4.07;3.20;;;20.10;99.90;;;;;;5047193;28;20018;-73
2023/08/29 10:45:54;;;;;;;4.00;2.10;;;20.20;99.90;;;;;;5039265;28;20030;-72
2023/08/29 10:48:23;;;;;;;2.80;2.40;;;20.10;99.90;;;;;;5046091;28;20038;-73
2023/08/29 10:51:08;;;;;;;4.30;2.15;;;20.10;99.90;;;;;;5041769;28;20082;-72
2023/08/29 10:53:38;;;;;;;1.80;1.70;;;20.10;99.90;;;;;;5047585;28;20504;-72
2023/08/29 10:56:10;;;;;;;3.78;2.42;;;20.20;99.90;;;;;;5044731;28;20021;-73
2023/08/29 10:58:41;;;;;;;2.50;2.30;;;20.20;99.90;;;;;;5045598;28;20025;-72
2023/08/29 11:01:36;;;;;;;4.55;2.83;;;20.20;99.90;;;;;;5043416;28;20485;-72
2023/08/29 11:04:12;;;;;;;4.80;2.17;;;20.10;99.90;;;;;;5044493;28;20029;-71
2023/08/29 11:06:55;;;;;;;4.30;1.75;;;20.20;99.90;;;;;;5041878;28;20109;-72
2023/08/29 11:09:22;;;;;;;;;;;20.30;99.90;;;;;;5048340;28;20363;-72
2023/08/29 11:12:12;;;;;;;5.72;2.30;;;20.40;99.90;;;;;;5046603;28;19963;-71
2023/08/29 11:14:53;;;;;;;2.30;2.10;;;20.50;99.90;;;;;;5049888;28;20020;-71
2023/08/29 11:17:26;;;;;;;5.68;2.65;;;20.50;99.90;;;;;;5040579;28;20039;-72
2023/08/29 11:19:56;;;;;;;2.92;1.40;;;20.40;99.90;;;;;;5043774;28;20130;-72
2023/08/29 11:22:25;;;;;;;3.38;1.30;;;20.30;99.90;;;;;;5040630;28;20934;-71
2023/08/29 11:24:55;;;;;;;3.22;1.40;;;20.20;99.90;;;;;;5047568;28;20509;-73
2023/08/29 11:27:28;;;;;;;6.28;1.75;;;20.30;99.90;;;;;;5042878;28;20044;-76
2023/08/29 11:29:54;;;;;;;5.15;1.35;;;20.40;99.90;;;;;;5045409;28;20083;-74
2023/08/29 11:32:20;;;;;;;2.38;1.27;;;20.50;99.90;;;;;;5042364;28;20029;-73
2023/08/29 11:34:55;;;;;;;1.60;1.33;;;20.40;99.90;;;;;;5041104;28;20025;-74
2023/08/29 11:37:24;;;;;;;2.47;1.70;;;20.40;99.90;;;;;;5050770;28;20049;-74
2023/08/29 11:39:58;;;;;;;1.63;1.52;;;20.40;99.90;;;;;;5049957;28;20446;-74
2023/08/29 11:42:28;;;;;;;3.70;1.75;;;20.50;99.90;;;;;;5045296;28;20127;-72
2023/08/29 11:44:54;;;;;;;3.38;2.20;;;20.50;99.90;;;;;;5040747;28;20020;-73
2023/08/29 11:47:20;;;;;;;1.85;1.75;;;20.50;99.90;;;;;;5051262;28;20020;-72
2023/08/29 11:49:51;;;;;;;2.60;1.50;;;20.60;99.90;;;;;;5041427;28;20099;-72
2023/08/29 11:52:17;;;;;;;4.97;1.90;;;20.60;99.90;;;;;;5043585;28;20017;-73
2023/08/29 11:54:48;;;;;;;4.65;2.20;;;20.70;99.90;;;;;;5044296;28;20032;-73
2023/08/29 11:57:14;;;;;;;4.13;2.17;;;20.90;99.90;;;;;;5040797;28;20025;-73
2023/08/29 11:59:45;;;;;;;2.88;1.80;;;21.10;99.90;;;;;;5045479;28;20087;-72
2023/08/29 12:02:12;;;;;;;3.03;2.15;;;21.20;99.90;;;;;;5041814;28;20128;-72
2023/08/29 12:04:41;;;;;;;2.13;2.03;;;21.20;99.90;;;;;;5043730;28;20095;-71
2023/08/29 12:07:08;;;;;;;2.63;2.42;;;21.30;99.90;;;;;;5044726;28;20033;-75
2023/08/29 12:09:33;;;;;;;5.20;2.42;;;21.50;99.90;;;;;;5038176;28;20048;-71
2023/08/29 12:11:59;;;;;;;5.80;2.17;;;21.50;99.90;;;;;;5048039;28;20049;-71
2023/08/29 12:14:27;;;;;;;4.70;2.38;;;21.40;99.90;;;;;;5044904;28;20029;-73
2023/08/29 12:16:53;;;;;;;4.45;2.78;;;21.60;99.90;;;;;;5046751;28;20363;-71
2023/08/29 12:19:19;;;;;;;4.28;2.03;;;21.60;99.90;;;;;;5036288;28;20055;-72
2023/08/29 12:21:54;;;;;;;3.00;2.08;;;21.80;99.90;;;;;;5044814;28;20470;-72
2023/08/29 12:24:21;;;;;;;4.32;2.50;;;22.10;99.90;;;;;;5040529;28;20762;-73
2023/08/29 12:26:47;;;;;;;4.95;2.20;;;22.20;99.90;;;;;;5042725;28;20116;-72
2023/08/29 12:29:13;;;;;;;3.63;2.85;;;22.30;99.90;;;;;;5036426;28;20063;-75
2023/08/29 12:31:38;;;;;;;3.15;2.50;;;22.30;99.90;;;;;;5039680;28;20545;-72
2023/08/29 12:34:04;;;;;;;3.33;2.10;;;22.40;99.90;;;;;;5045202;28;20385;-72
2023/08/29 12:36:30;;;;;;;3.55;2.50;;;22.50;99.90;;;;;;5037193;28;20025;-72